createdAt,value
2022-10-22T00:00:09.670Z,73.02
2022-10-22T00:02:36.545Z,73.35
2022-10-22T00:05:04.160Z,73.66
2022-10-22T00:07:32.311Z,73.68
2022-10-22T00:09:58.976Z,73.74
2022-10-22T00:12:25.915Z,73.85
2022-10-22T00:14:52.623Z,73.47
2022-10-22T00:17:19.717Z,73.36
2022-10-22T00:19:46.409Z,73.27
2022-10-22T00:22:13.127Z,73.04
2022-10-22T00:24:40.890Z,73.06
2022-10-22T00:27:11.016Z,73.13
2022-10-22T00:29:37.813Z,73.55
2022-10-22T00:32:05.584Z,73.82
2022-10-22T00:34:33.276Z,74.14
2022-10-22T00:36:59.965Z,74.20
2022-10-22T00:39:27.709Z,74.14
2022-10-22T00:41:55.898Z,74.05
2022-10-22T00:44:53.904Z,73.94
2022-10-22T00:47:23.098Z,74.14
2022-10-22T00:49:50.470Z,74.05
2022-10-22T00:52:17.213Z,74.04
2022-10-22T00:54:43.942Z,74.02
2022-10-22T00:57:11.303Z,74.35
2022-10-22T00:59:38.389Z,74.72
2022-10-22T01:02:05.203Z,74.85
2022-10-22T01:04:31.907Z,74.87
2022-10-22T01:06:58.813Z,74.75
2022-10-22T01:09:34.639Z,75.04
2022-10-22T01:12:17.125Z,75.34
2022-10-22T01:14:58.220Z,75.71
2022-10-22T01:17:55.697Z,75.80
2022-10-22T01:20:23.389Z,75.58
2022-10-22T01:23:17.411Z,75.40
2022-10-22T01:26:04.142Z,75.13
2022-10-22T01:28:59.735Z,75.01
2022-10-22T01:31:32.612Z,75.53
2022-10-22T01:34:01.088Z,76.25
2022-10-22T01:36:34.003Z,76.48
2022-10-22T01:39:02.429Z,76.68
2022-10-22T01:41:29.781Z,77.06
2022-10-22T01:43:56.527Z,77.19
2022-10-22T01:46:27.261Z,76.76
2022-10-22T01:49:17.506Z,76.79
2022-10-22T01:52:14.970Z,76.91
2022-10-22T01:54:52.234Z,76.84
2022-10-22T01:57:30.937Z,77.29
2022-10-22T02:00:09.684Z,76.87
2022-10-22T02:02:58.909Z,77.22
2022-10-22T02:05:39.484Z,77.78
2022-10-22T02:08:11.237Z,77.92
2022-10-22T02:10:40.718Z,78.01
2022-10-22T02:13:12.413Z,78.26
2022-10-22T02:15:40.646Z,78.06
2022-10-22T02:18:10.038Z,78.42
2022-10-22T02:20:39.085Z,78.39
2022-10-22T02:23:05.971Z,78.60
2022-10-22T02:25:35.663Z,78.00
2022-10-22T02:28:11.976Z,78.31
2022-10-22T02:30:42.603Z,78.43
2022-10-22T02:33:14.145Z,78.71
2022-10-22T02:35:42.823Z,78.75
2022-10-22T02:38:11.629Z,78.96
2022-10-22T02:40:38.607Z,79.05
2022-10-22T02:43:06.056Z,79.31
2022-10-22T02:45:34.731Z,80.25
2022-10-22T02:48:01.529Z,80.96
2022-10-22T02:50:28.373Z,81.78
2022-10-22T02:52:55.081Z,81.91
2022-10-22T02:55:21.961Z,82.14
2022-10-22T02:57:48.722Z,81.96
2022-10-22T03:00:15.879Z,81.42
2022-10-22T03:02:42.568Z,80.63
2022-10-22T03:05:09.851Z,79.91
2022-10-22T03:07:36.592Z,79.32
2022-10-22T03:10:04.058Z,79.07
2022-10-22T03:12:30.955Z,78.54
2022-10-22T03:14:57.611Z,77.92
2022-10-22T03:17:24.520Z,77.47
2022-10-22T03:19:51.203Z,76.82
2022-10-22T03:22:23.391Z,76.25
2022-10-22T03:24:54.489Z,76.09
2022-10-22T03:27:23.301Z,75.72
2022-10-22T03:29:52.614Z,75.20
2022-10-22T03:32:19.816Z,75.00
2022-10-22T03:34:46.584Z,74.84
2022-10-22T03:37:13.866Z,74.78
2022-10-22T03:39:40.890Z,74.79
2022-10-22T03:42:08.307Z,74.61
2022-10-22T03:44:38.174Z,74.44
2022-10-22T03:47:05.136Z,74.46
2022-10-22T03:49:31.893Z,74.52
2022-10-22T03:51:58.566Z,74.42
2022-10-22T03:54:25.337Z,74.42
2022-10-22T03:56:52.055Z,74.29
2022-10-22T03:59:19.050Z,74.32
2022-10-22T04:01:45.895Z,74.11
2022-10-22T04:04:12.566Z,74.07
2022-10-22T04:06:39.262Z,74.10
2022-10-22T04:09:06.036Z,73.82
2022-10-22T04:11:32.851Z,74.10
2022-10-22T04:13:59.584Z,74.14
2022-10-22T04:16:31.093Z,74.11
2022-10-22T04:18:58.070Z,74.06
2022-10-22T04:21:25.246Z,74.11
2022-10-22T04:23:52.935Z,74.24
2022-10-22T04:26:20.538Z,74.16
2022-10-22T04:28:50.445Z,74.32
2022-10-22T04:31:20.325Z,74.31
2022-10-22T04:33:47.398Z,74.51
2022-10-22T04:36:17.592Z,74.87
2022-10-22T04:38:46.460Z,74.78
2022-10-22T04:41:15.656Z,74.48
2022-10-22T04:43:43.397Z,74.61
2022-10-22T04:46:11.769Z,75.03
2022-10-22T04:48:41.245Z,74.87
2022-10-22T04:51:10.899Z,74.98
2022-10-22T04:53:38.214Z,75.54
2022-10-22T04:56:20.585Z,75.90
2022-10-22T04:58:53.183Z,76.01
2022-10-22T05:01:22.569Z,76.04
2022-10-22T05:03:51.499Z,76.71
2022-10-22T05:06:20.957Z,77.01
2022-10-22T05:08:48.545Z,77.15
2022-10-22T05:11:18.208Z,77.17
2022-10-22T05:13:45.339Z,77.53
2022-10-22T05:16:13.351Z,78.07
2022-10-22T05:18:42.814Z,78.44
2022-10-22T05:21:13.246Z,78.72
2022-10-22T05:23:40.131Z,78.97
2022-10-22T05:26:08.630Z,79.23
2022-10-22T05:28:36.284Z,78.94
2022-10-22T05:31:04.226Z,78.41
2022-10-22T05:33:32.925Z,78.50
2022-10-22T05:36:01.074Z,78.58
2022-10-22T05:38:28.123Z,78.63
2022-10-22T05:41:06.652Z,79.12
2022-10-22T05:43:33.698Z,78.93
2022-10-22T05:46:04.101Z,78.49
2022-10-22T05:48:33.999Z,78.34
2022-10-22T05:51:05.489Z,77.79
2022-10-22T05:53:35.316Z,77.77
2022-10-22T05:56:06.695Z,77.10
2022-10-22T05:58:34.241Z,76.85
2022-10-22T06:01:03.711Z,76.56
2022-10-22T06:03:31.926Z,76.10
2022-10-22T06:06:01.822Z,75.27
2022-10-22T06:08:29.517Z,74.70
2022-10-22T06:10:56.753Z,74.32
2022-10-22T06:13:23.494Z,73.86
2022-10-22T06:15:52.837Z,73.43
2022-10-22T06:18:20.090Z,72.94
2022-10-22T06:20:47.725Z,72.90
2022-10-22T06:23:15.419Z,72.74
2022-10-22T06:25:43.568Z,72.66
2022-10-22T06:28:11.752Z,72.19
2022-10-22T06:30:42.896Z,71.71
2022-10-22T06:33:12.715Z,70.81
2022-10-22T06:35:39.387Z,69.56
2022-10-22T06:38:06.482Z,68.05
2022-10-22T06:40:33.946Z,66.19
2022-10-22T06:43:00.660Z,65.38
2022-10-22T06:45:27.426Z,64.54
2022-10-22T06:47:55.563Z,64.29
2022-10-22T06:50:22.356Z,64.48
2022-10-22T06:52:49.159Z,64.52
2022-10-22T06:55:15.987Z,65.01
2022-10-22T06:57:43.284Z,65.29
2022-10-22T07:00:10.788Z,65.73
2022-10-22T07:02:37.615Z,64.74
2022-10-22T07:05:05.019Z,64.70
2022-10-22T07:07:31.781Z,64.52
2022-10-22T07:09:58.460Z,64.37
2022-10-22T07:12:25.994Z,63.57
2022-10-22T07:14:52.670Z,62.53
2022-10-22T07:17:19.357Z,62.84
2022-10-22T07:19:49.632Z,63.25
2022-10-22T07:22:18.152Z,63.26
2022-10-22T07:24:44.840Z,63.60
2022-10-22T07:27:11.901Z,63.30
2022-10-22T07:29:38.663Z,62.69
2022-10-22T07:32:05.578Z,62.62
2022-10-22T07:34:32.327Z,62.69
2022-10-22T07:36:59.426Z,63.11
2022-10-22T07:39:26.219Z,63.06
2022-10-22T07:41:53.398Z,63.11
2022-10-22T07:44:20.366Z,62.55
2022-10-22T07:46:48.965Z,62.35
2022-10-22T07:49:15.940Z,61.98
2022-10-22T07:51:42.657Z,62.61
2022-10-22T07:54:09.349Z,62.81
2022-10-22T07:56:36.131Z,62.57
2022-10-22T08:01:34.500Z,60.40
2022-10-22T08:04:01.192Z,60.22
2022-10-22T08:06:27.890Z,60.33
2022-10-22T08:08:54.614Z,60.50
2022-10-22T08:11:21.887Z,60.85
2022-10-22T08:13:48.548Z,61.33
2022-10-22T08:16:15.495Z,62.01
2022-10-22T08:18:42.949Z,61.69
2022-10-22T08:21:10.571Z,61.58
2022-10-22T08:23:37.842Z,61.54
2022-10-22T08:26:05.322Z,61.75
2022-10-22T08:28:36.969Z,61.75
2022-10-22T08:31:07.730Z,61.61
2022-10-22T08:33:34.971Z,62.27
2022-10-22T08:36:01.694Z,62.22
2022-10-22T08:38:28.369Z,61.53
2022-10-22T08:41:07.681Z,61.68
2022-10-22T08:43:41.997Z,62.11
2022-10-22T08:46:33.845Z,62.56
2022-10-22T08:49:03.316Z,63.06
2022-10-22T08:51:35.078Z,62.68
2022-10-22T08:54:32.299Z,63.00
2022-10-22T08:57:13.802Z,62.79
2022-10-22T08:59:48.158Z,62.88
2022-10-22T09:02:35.070Z,62.84
2022-10-22T09:05:12.328Z,62.93
2022-10-22T09:07:48.588Z,63.09
2022-10-22T09:10:16.769Z,63.27
2022-10-22T09:12:43.822Z,63.02
2022-10-22T09:15:20.540Z,62.45
2022-10-22T09:18:02.810Z,62.69
2022-10-22T09:20:44.252Z,62.69
2022-10-22T09:23:29.819Z,62.81
2022-10-22T09:25:57.996Z,62.56
2022-10-22T09:28:26.460Z,62.18
2022-10-22T09:30:54.062Z,61.83
2022-10-22T09:33:25.943Z,61.65
2022-10-22T09:35:54.425Z,61.00
2022-10-22T09:38:26.059Z,60.84
2022-10-22T09:40:55.914Z,61.26
2022-10-22T09:43:22.769Z,61.26
2022-10-22T09:45:58.097Z,61.65
2022-10-22T09:48:32.309Z,61.80
2022-10-22T09:51:05.691Z,62.14
2022-10-22T09:53:38.118Z,62.45
2022-10-22T09:56:17.332Z,63.06
2022-10-22T09:58:49.267Z,62.64
2022-10-22T10:01:22.020Z,62.75
2022-10-22T10:03:49.912Z,63.15
2022-10-22T10:06:21.608Z,64.14
2022-10-22T10:08:49.293Z,63.62
2022-10-22T10:11:35.134Z,64.03
2022-10-22T10:14:13.950Z,64.89
2022-10-22T10:17:03.771Z,64.99
2022-10-22T10:19:49.498Z,64.48
2022-10-22T10:22:25.241Z,64.91
2022-10-22T10:25:12.878Z,65.15
2022-10-22T10:27:47.179Z,66.19
2022-10-22T10:30:20.819Z,66.90
2022-10-22T10:33:01.663Z,67.19
2022-10-22T10:35:31.348Z,67.18
2022-10-22T10:38:23.516Z,67.48
2022-10-22T10:41:15.514Z,68.29
2022-10-22T10:43:50.046Z,68.74
2022-10-22T10:46:34.897Z,69.38
2022-10-22T10:49:11.217Z,69.88
2022-10-22T10:51:45.747Z,69.72
2022-10-22T10:54:21.461Z,69.58
2022-10-22T10:56:55.880Z,70.19
2022-10-22T10:59:43.932Z,70.32
2022-10-22T11:02:27.151Z,70.99
2022-10-22T11:05:13.723Z,71.92
2022-10-22T11:07:58.536Z,73.18
2022-10-22T11:10:36.146Z,73.95
2022-10-22T11:13:14.324Z,74.02
2022-10-22T11:15:45.942Z,74.14
2022-10-22T11:18:35.065Z,74.32
2022-10-22T11:21:16.954Z,74.66
2022-10-22T11:23:50.662Z,75.63
2022-10-22T11:26:32.123Z,76.57
2022-10-22T11:29:01.832Z,76.81
2022-10-22T11:31:31.758Z,77.19
2022-10-22T11:34:33.149Z,78.03
2022-10-22T11:37:02.102Z,77.88
2022-10-22T11:39:31.291Z,77.32
2022-10-22T11:41:59.488Z,77.19
2022-10-22T11:44:30.273Z,77.12
2022-10-22T11:46:59.963Z,77.28
2022-10-22T11:49:41.693Z,76.65
2022-10-22T11:52:31.809Z,76.24
2022-10-22T11:55:03.041Z,76.43
2022-10-22T11:57:38.255Z,75.76
2022-10-22T12:00:31.314Z,75.18
2022-10-22T12:03:05.995Z,75.64
2022-10-22T12:05:35.286Z,76.03
2022-10-22T12:08:15.961Z,76.72
2022-10-22T12:10:54.941Z,76.64
2022-10-22T12:13:27.170Z,76.81
2022-10-22T12:15:59.022Z,76.60
2022-10-22T12:18:28.451Z,76.50
2022-10-22T12:20:55.420Z,76.43
2022-10-22T12:23:31.675Z,76.69
2022-10-22T12:25:58.678Z,76.81
2022-10-22T12:28:25.495Z,76.78
2022-10-22T12:30:52.348Z,76.57
2022-10-22T12:33:22.664Z,76.84
2022-10-22T12:35:53.016Z,77.24
2022-10-22T12:38:22.848Z,77.22
2022-10-22T12:40:54.202Z,77.44
2022-10-22T12:43:30.054Z,76.97
2022-10-22T12:45:59.196Z,77.15
2022-10-22T12:48:32.065Z,77.24
2022-10-22T12:51:01.142Z,76.86
2022-10-22T12:53:35.393Z,77.13
2022-10-22T12:56:05.459Z,76.94
2022-10-22T12:58:52.037Z,77.05
2022-10-22T13:01:19.501Z,77.27
2022-10-22T13:03:50.561Z,76.77
2022-10-22T13:06:18.416Z,76.76
2022-10-22T13:09:14.919Z,76.34
2022-10-22T13:11:50.115Z,76.30
2022-10-22T13:14:34.165Z,76.41
2022-10-22T13:17:19.623Z,76.54
2022-10-22T13:19:46.332Z,76.08
2022-10-22T13:22:29.874Z,76.05
2022-10-22T13:25:00.026Z,75.97
2022-10-22T13:27:28.568Z,76.25
2022-10-22T13:29:57.231Z,76.46
2022-10-22T13:32:33.793Z,75.84
2022-10-22T13:35:02.803Z,76.18
2022-10-22T13:37:32.628Z,76.01
2022-10-22T13:39:59.580Z,75.87
2022-10-22T13:42:26.261Z,76.14
2022-10-22T13:45:08.694Z,76.48
2022-10-22T13:47:35.616Z,76.30
2022-10-22T13:50:05.061Z,76.57
2022-10-22T13:52:38.667Z,76.90
2022-10-22T13:55:15.197Z,77.26
2022-10-22T13:57:41.909Z,77.72
2022-10-22T14:00:13.132Z,77.96
2022-10-22T14:02:41.384Z,78.15
2022-10-22T14:05:09.668Z,78.48
2022-10-22T14:07:37.197Z,78.94
2022-10-22T14:10:22.833Z,79.31
2022-10-22T14:12:53.571Z,79.58
2022-10-22T14:15:24.240Z,80.16
2022-10-22T14:17:57.767Z,80.37
2022-10-22T14:20:29.169Z,80.65
2022-10-22T14:23:03.570Z,81.16
2022-10-22T14:25:31.604Z,81.53
2022-10-22T14:27:58.510Z,81.84
2022-10-22T14:30:26.480Z,81.82
2022-10-22T14:32:53.229Z,82.09
2022-10-22T14:35:22.557Z,82.63
2022-10-22T14:37:49.863Z,82.76
2022-10-22T14:40:19.937Z,83.48
2022-10-22T14:42:48.698Z,83.57
2022-10-22T14:45:22.067Z,83.83
2022-10-22T14:50:34.563Z,83.72
2022-10-22T14:53:01.381Z,84.04
2022-10-22T14:55:29.070Z,83.94
2022-10-22T14:57:55.903Z,84.21
2022-10-22T15:00:23.129Z,84.13
2022-10-22T15:02:49.960Z,84.33
2022-10-22T15:05:17.551Z,84.56
2022-10-22T15:07:45.159Z,84.50
2022-10-22T15:10:11.911Z,84.73
2022-10-22T15:12:38.753Z,84.78
2022-10-22T15:15:06.241Z,84.69
2022-10-22T15:17:33.599Z,85.03
2022-10-22T15:20:04.474Z,85.26
2022-10-22T15:22:35.280Z,85.25
2022-10-22T15:25:05.613Z,85.11
2022-10-22T15:27:32.266Z,85.05
2022-10-22T15:29:59.283Z,84.96
2022-10-22T15:32:28.496Z,85.08
2022-10-22T15:34:56.257Z,85.02
2022-10-22T15:37:23.464Z,85.06
2022-10-22T15:39:50.146Z,85.14
2022-10-22T15:42:18.699Z,84.98
2022-10-22T15:44:47.087Z,85.21
2022-10-22T15:47:13.788Z,85.15
2022-10-22T15:49:41.995Z,85.11
2022-10-22T15:52:09.842Z,85.05
2022-10-22T15:54:36.672Z,85.06
2022-10-22T15:57:05.864Z,85.30
2022-10-22T15:59:48.177Z,85.26
2022-10-22T16:02:16.254Z,85.22
2022-10-22T16:04:45.044Z,85.47
2022-10-22T16:07:11.882Z,85.24
2022-10-22T16:09:38.573Z,85.46
2022-10-22T16:12:05.510Z,85.39
2022-10-22T16:14:32.314Z,85.62
2022-10-22T16:16:59.740Z,85.46
2022-10-22T16:19:26.571Z,85.59
2022-10-22T16:21:56.223Z,85.65
2022-10-22T16:24:23.303Z,85.37
2022-10-22T16:26:50.160Z,85.56
2022-10-22T16:29:16.889Z,85.52
2022-10-22T16:31:45.525Z,85.49
2022-10-22T16:34:15.936Z,85.63
2022-10-22T16:36:44.400Z,85.71
2022-10-22T16:39:11.246Z,85.62
2022-10-22T16:41:38.084Z,85.53
2022-10-22T16:44:07.984Z,85.57
2022-10-22T16:46:38.957Z,85.70
2022-10-22T16:49:07.697Z,85.60
2022-10-22T16:51:35.408Z,86.04
2022-10-22T16:54:08.127Z,85.97
2022-10-22T16:56:38.138Z,85.87
2022-10-22T16:59:04.900Z,85.82
2022-10-22T17:01:33.229Z,85.80
2022-10-22T17:04:18.406Z,86.00
2022-10-22T17:06:45.940Z,85.99
2022-10-22T17:09:13.766Z,85.94
2022-10-22T17:11:42.673Z,86.17
2022-10-22T17:14:11.651Z,86.43
2022-10-22T17:16:39.504Z,86.28
2022-10-22T17:19:06.449Z,86.34
2022-10-22T17:21:34.178Z,86.84
2022-10-22T17:24:18.122Z,86.85
2022-10-22T17:26:45.081Z,86.89
2022-10-22T17:29:12.915Z,87.36
2022-10-22T17:31:40.777Z,87.33
2022-10-22T17:34:11.073Z,87.32
2022-10-22T17:36:37.843Z,87.06
2022-10-22T17:39:08.162Z,87.22
2022-10-22T17:41:36.710Z,86.90
2022-10-22T17:44:05.854Z,87.12
2022-10-22T17:46:33.357Z,87.18
2022-10-22T17:49:06.978Z,86.96
2022-10-22T17:51:34.216Z,86.93
2022-10-22T17:54:02.506Z,87.00
2022-10-22T17:56:31.621Z,87.08
2022-10-22T17:58:59.936Z,86.96
2022-10-22T18:01:29.810Z,87.07
2022-10-22T18:04:01.634Z,87.07
2022-10-22T18:06:28.886Z,87.09
2022-10-22T18:08:56.130Z,87.04
2022-10-22T18:11:25.949Z,87.13
2022-10-22T18:13:56.131Z,87.13
2022-10-22T18:16:23.585Z,87.11
2022-10-22T18:18:53.292Z,86.99
2022-10-22T18:21:21.545Z,86.97
2022-10-22T18:23:48.649Z,87.06
2022-10-22T18:26:17.943Z,87.08
2022-10-22T18:28:46.247Z,87.22
2022-10-22T18:31:19.849Z,86.94
2022-10-22T18:33:47.675Z,87.08
2022-10-22T18:36:19.340Z,87.20
2022-10-22T18:38:50.469Z,87.28
2022-10-22T18:41:17.960Z,87.46
2022-10-22T18:43:44.784Z,87.43
2022-10-22T18:46:11.477Z,87.31
2022-10-22T18:48:38.202Z,87.42
2022-10-22T18:51:08.857Z,87.38
2022-10-22T18:53:37.487Z,87.52
2022-10-22T18:56:07.175Z,87.43
2022-10-22T18:58:39.011Z,87.54
2022-10-22T19:01:09.297Z,87.60
2022-10-22T19:03:36.119Z,87.31
2022-10-22T19:06:03.172Z,87.22
2022-10-22T19:08:29.867Z,87.15
2022-10-22T19:10:56.550Z,87.39
2022-10-22T19:13:25.508Z,87.31
2022-10-22T19:15:52.893Z,87.36
2022-10-22T19:18:20.393Z,87.38
2022-10-22T19:20:48.947Z,87.37
2022-10-22T19:23:19.910Z,87.59
2022-10-22T19:25:48.183Z,87.68
2022-10-22T19:28:14.854Z,87.80
2022-10-22T19:30:44.759Z,87.77
2022-10-22T19:33:11.541Z,87.74
2022-10-22T19:35:38.329Z,87.75
2022-10-22T19:38:05.040Z,87.95
2022-10-22T19:40:31.829Z,88.01
2022-10-22T19:42:58.566Z,88.03
2022-10-22T19:45:25.275Z,87.96
2022-10-22T19:47:51.953Z,87.99
2022-10-22T19:50:18.662Z,87.91
2022-10-22T19:52:45.360Z,87.74
2022-10-22T19:55:12.130Z,88.02
2022-10-22T19:57:39.221Z,87.93
2022-10-22T20:00:07.879Z,87.78
2022-10-22T20:02:37.054Z,88.04
2022-10-22T20:05:05.022Z,87.79
2022-10-22T20:07:33.370Z,87.81
2022-10-22T20:10:00.139Z,87.77
2022-10-22T20:12:26.994Z,87.72
2022-10-22T20:14:54.057Z,87.76
2022-10-22T20:17:20.987Z,87.76
2022-10-22T20:19:47.892Z,87.84
2022-10-22T20:22:17.802Z,87.68
2022-10-22T20:24:45.613Z,87.92
2022-10-22T20:27:13.477Z,87.97
2022-10-22T20:29:40.196Z,87.92
2022-10-22T20:32:08.804Z,88.11
2022-10-22T20:34:37.023Z,88.00
2022-10-22T20:37:03.859Z,87.92
2022-10-22T20:39:31.111Z,88.23
2022-10-22T20:41:57.771Z,88.52
2022-10-22T20:44:24.529Z,88.56
2022-10-22T20:46:52.478Z,88.34
2022-10-22T20:49:20.766Z,88.23
2022-10-22T20:51:47.450Z,87.98
2022-10-22T20:54:15.059Z,88.08
2022-10-22T20:56:42.220Z,88.21
2022-10-22T20:59:12.088Z,87.98
2022-10-22T21:01:43.989Z,88.10
2022-10-22T21:04:11.075Z,87.94
2022-10-22T21:06:39.065Z,87.75
2022-10-22T21:09:07.530Z,87.68
2022-10-22T21:11:35.853Z,87.62
2022-10-22T21:14:03.831Z,87.65
2022-10-22T21:16:31.284Z,87.48
2022-10-22T21:18:58.172Z,87.68
2022-10-22T21:21:25.205Z,87.47
2022-10-22T21:23:52.251Z,87.64
2022-10-22T21:26:20.780Z,87.53
2022-10-22T21:28:47.647Z,87.37
2022-10-22T21:31:21.823Z,87.38
2022-10-22T21:33:54.253Z,87.41
2022-10-22T21:36:23.462Z,87.35
2022-10-22T21:38:52.153Z,87.09
2022-10-22T21:41:21.134Z,87.13
2022-10-22T21:43:48.237Z,87.02
2022-10-22T21:46:18.492Z,87.13
2022-10-22T21:48:47.086Z,87.10
2022-10-22T21:51:16.439Z,87.20
2022-10-22T21:53:43.714Z,86.88
2022-10-22T21:56:16.952Z,86.87
2022-10-22T21:58:43.793Z,87.09
2022-10-22T22:01:11.549Z,86.93
2022-10-22T22:03:38.672Z,86.91
2022-10-22T22:06:06.381Z,87.00
2022-10-22T22:08:34.198Z,87.06
2022-10-22T22:11:03.372Z,87.05
2022-10-22T22:13:30.180Z,86.98
2022-10-22T22:16:02.222Z,87.01
2022-10-22T22:18:29.937Z,87.09
2022-10-22T22:20:57.872Z,86.80
2022-10-22T22:23:25.404Z,87.03
2022-10-22T22:25:52.436Z,86.91
2022-10-22T22:28:19.112Z,86.90
2022-10-22T22:30:45.773Z,86.71
2022-10-22T22:33:12.832Z,86.73
2022-10-22T22:38:11.367Z,86.74
2022-10-22T22:40:39.607Z,86.88
2022-10-22T22:43:06.439Z,86.86
2022-10-22T22:45:33.403Z,86.85
2022-10-22T22:48:00.076Z,86.85
2022-10-22T22:50:26.776Z,86.74
2022-10-22T22:52:53.524Z,86.59
2022-10-22T22:55:20.186Z,86.96
2022-10-22T22:57:46.899Z,86.96
2022-10-22T23:00:13.886Z,87.06
2022-10-22T23:02:41.192Z,87.18
2022-10-22T23:05:08.962Z,87.08
2022-10-22T23:07:35.788Z,87.33
2022-10-22T23:10:02.513Z,86.98
2022-10-22T23:12:29.308Z,87.00
2022-10-22T23:14:56.168Z,87.05
2022-10-22T23:17:22.974Z,86.75
2022-10-22T23:19:49.754Z,86.89
2022-10-22T23:22:16.483Z,86.88
2022-10-22T23:24:43.146Z,86.91
2022-10-22T23:27:10.319Z,86.88
2022-10-22T23:29:37.085Z,86.99
2022-10-22T23:32:05.761Z,87.11
2022-10-22T23:34:32.881Z,87.09
2022-10-22T23:36:59.766Z,86.95
2022-10-22T23:39:28.991Z,87.07
2022-10-22T23:41:56.412Z,87.04
2022-10-22T23:44:24.334Z,86.84
2022-10-22T23:46:51.252Z,86.90
2022-10-22T23:49:18.403Z,86.92
2022-10-22T23:51:45.256Z,87.16
2022-10-22T23:54:14.934Z,87.03
2022-10-22T23:56:42.172Z,87.06
2022-10-22T23:59:09.552Z,87.12
